createdAt,value
2022-09-24T11:44:45.038Z,63.25
2022-09-24T11:45:45.045Z,62.15
2022-09-24T11:46:44.990Z,62.24
2022-09-24T11:48:35.388Z,62.41
2022-09-24T11:49:35.396Z,64.02
2022-09-24T11:50:35.365Z,64.15
2022-09-24T11:51:35.374Z,63.85
2022-09-24T11:52:35.341Z,64.18
2022-09-24T11:53:35.332Z,64.69
2022-09-24T11:54:35.317Z,65.19
2022-09-24T11:55:35.319Z,65.22
2022-09-24T11:56:35.314Z,64.07
2022-09-24T11:57:35.287Z,64.81
2022-09-24T11:58:35.303Z,65.72
2022-09-24T11:59:35.390Z,64.54
2022-09-24T12:00:35.375Z,64.95
2022-09-24T12:01:35.330Z,64.44
2022-09-24T12:02:35.316Z,65.55
2022-09-24T12:03:35.288Z,65.05
2022-09-24T12:04:35.207Z,65.85
2022-09-24T12:05:35.310Z,64.81
2022-09-24T12:06:45.299Z,63.10
2022-09-24T12:07:35.173Z,64.01
2022-09-24T12:08:35.177Z,64.21
2022-09-24T12:09:35.145Z,65.05
2022-09-24T12:10:35.185Z,65.25
2022-09-24T12:11:35.177Z,64.95
2022-09-24T12:12:35.148Z,63.43
2022-09-24T12:13:35.102Z,64.24
2022-09-24T12:14:35.094Z,63.53
2022-09-24T12:15:35.099Z,64.24
2022-09-24T12:16:35.197Z,67.03
2022-09-24T12:17:35.104Z,66.83
2022-09-24T12:18:35.049Z,67.20
2022-09-24T12:19:35.051Z,69.69
2022-09-24T12:20:35.029Z,67.03
2022-09-24T12:21:35.020Z,65.90
2022-09-24T12:22:35.044Z,65.80
2022-09-24T12:23:34.988Z,64.96
2022-09-24T12:24:35.000Z,64.26
2022-09-24T12:25:34.989Z,64.73
2022-09-24T12:26:34.959Z,65.60
2022-09-24T12:27:34.946Z,62.79
2022-09-24T12:28:34.945Z,63.49
2022-09-24T12:29:34.945Z,59.78
2022-09-24T12:30:34.922Z,60.75
2022-09-24T12:31:34.944Z,62.16
2022-09-24T12:32:34.925Z,62.93
2022-09-24T12:33:34.894Z,62.93
2022-09-24T12:34:34.865Z,60.22
2022-09-24T12:35:34.850Z,59.12
2022-09-24T12:36:34.848Z,61.66
2022-09-24T12:37:34.878Z,61.66
2022-09-24T12:38:34.826Z,64.00
2022-09-24T12:39:34.807Z,62.62
2022-09-24T12:40:34.866Z,62.12
2022-09-24T12:41:34.824Z,62.32
2022-09-24T12:42:34.777Z,63.35
2022-09-24T12:43:34.771Z,63.45
2022-09-24T12:44:34.776Z,64.06
2022-09-24T12:45:34.742Z,64.46
2022-09-24T12:46:34.801Z,62.07
2022-09-24T12:47:34.717Z,62.38
2022-09-24T12:48:34.814Z,63.99
2022-09-24T12:49:34.714Z,62.27
2022-09-24T12:50:34.702Z,62.41
2022-09-24T12:51:34.671Z,62.71
2022-09-24T12:52:34.683Z,62.71
2022-09-24T12:53:34.652Z,65.73
2022-09-24T12:54:34.659Z,64.32
2022-09-24T12:55:34.647Z,66.03
2022-09-24T12:56:34.624Z,65.86
2022-09-24T12:57:34.601Z,65.36
2022-09-24T12:58:34.597Z,65.36
2022-09-24T12:59:34.604Z,66.47
2022-09-24T13:00:34.576Z,64.75
2022-09-24T13:01:34.726Z,64.25
2022-09-24T13:02:34.712Z,64.35
2022-09-24T13:03:34.535Z,64.05
2022-09-24T13:04:34.649Z,64.55
2022-09-24T13:05:34.508Z,65.66
2022-09-24T13:06:34.513Z,66.87
2022-09-24T13:07:34.506Z,65.86
2022-09-24T13:08:34.477Z,64.92
2022-09-24T13:09:34.516Z,62.81
2022-09-24T13:10:34.495Z,64.12
2022-09-24T13:11:34.444Z,63.08
2022-09-24T13:12:34.433Z,62.58
2022-09-24T13:13:34.421Z,61.57
2022-09-24T13:14:34.414Z,62.68
2022-09-24T13:15:34.561Z,64.89
2022-09-24T13:16:34.460Z,65.19
2022-09-24T13:17:41.566Z,65.39
2022-09-24T13:18:34.391Z,66.00
2022-09-24T13:19:34.350Z,65.77
2022-09-24T13:20:34.471Z,62.65
2022-09-24T13:21:34.335Z,64.49
2022-09-24T13:22:34.324Z,62.88
2022-09-24T13:23:34.323Z,61.67
2022-09-24T13:24:34.292Z,60.36
2022-09-24T13:25:34.319Z,61.47
2022-09-24T13:26:34.272Z,61.54
2022-09-24T13:27:34.259Z,60.84
2022-09-24T13:28:38.842Z,61.94
2022-09-24T13:29:35.234Z,64.16
2022-09-24T13:30:34.269Z,62.45
2022-09-24T13:31:34.265Z,62.75
2022-09-24T13:32:34.225Z,64.33
2022-09-24T13:33:34.197Z,64.63
2022-09-24T13:34:34.185Z,63.22
2022-09-24T13:35:34.189Z,64.33
2022-09-24T13:36:34.199Z,63.59
2022-09-24T13:37:34.150Z,63.70
2022-09-24T13:38:34.134Z,62.69
2022-09-24T13:39:34.123Z,62.76
2022-09-24T13:40:34.205Z,63.56
2022-09-24T13:41:34.125Z,62.56
2022-09-24T13:42:34.088Z,62.56
2022-09-24T13:43:34.077Z,62.89
2022-09-24T13:44:34.087Z,63.26
2022-09-24T13:45:34.051Z,63.29
2022-09-24T13:46:34.176Z,64.30
2022-09-24T13:47:34.031Z,64.50
2022-09-24T13:48:34.019Z,64.80
2022-09-24T13:49:34.028Z,65.60
2022-09-24T13:50:34.118Z,64.10
2022-09-24T13:51:34.021Z,62.76
2022-09-24T13:52:34.024Z,62.59
2022-09-24T13:53:33.962Z,61.01
2022-09-24T13:54:33.950Z,62.35
2022-09-24T13:55:33.961Z,62.35
2022-09-24T13:56:33.962Z,62.65
2022-09-24T13:57:33.970Z,64.56
2022-09-24T13:58:33.916Z,63.48
2022-09-24T13:59:33.898Z,63.28
2022-09-24T14:00:33.954Z,64.79
2022-09-24T14:01:33.972Z,65.80
2022-09-24T14:02:34.032Z,66.00
2022-09-24T14:03:33.848Z,66.43
2022-09-24T14:04:33.848Z,67.21
2022-09-24T14:05:33.824Z,67.11
2022-09-24T14:06:33.817Z,64.89
2022-09-24T14:07:33.834Z,65.59
2022-09-24T14:08:33.916Z,66.57
2022-09-24T14:09:33.780Z,65.94
2022-09-24T14:10:33.783Z,65.53
2022-09-24T14:11:33.758Z,66.34
2022-09-24T14:12:33.763Z,66.74
2022-09-24T14:13:33.783Z,66.64
2022-09-24T14:14:33.728Z,66.24
2022-09-24T14:15:33.760Z,64.53
2022-09-24T14:16:33.807Z,64.23
2022-09-24T14:17:33.703Z,65.67
2022-09-24T14:18:33.710Z,66.27
2022-09-24T14:19:33.667Z,66.27
2022-09-24T14:20:33.658Z,65.06
2022-09-24T14:21:33.643Z,66.17
2022-09-24T14:22:33.637Z,66.10
2022-09-24T14:23:33.644Z,65.59
2022-09-24T14:24:33.627Z,66.00
2022-09-24T14:25:33.598Z,67.91
2022-09-24T14:26:33.589Z,68.24
2022-09-24T14:27:33.578Z,68.04
2022-09-24T14:28:33.596Z,67.34
2022-09-24T14:29:33.594Z,68.04
2022-09-24T14:30:33.553Z,67.14
2022-09-24T14:31:33.552Z,68.24
2022-09-24T14:32:33.517Z,69.69
2022-09-24T14:33:33.529Z,70.29
2022-09-24T14:34:33.530Z,69.18
2022-09-24T14:35:33.486Z,68.21
2022-09-24T14:36:33.474Z,68.01
2022-09-24T14:37:33.463Z,70.12
2022-09-24T14:38:33.451Z,68.11
2022-09-24T14:39:33.462Z,70.46
2022-09-24T14:40:33.540Z,70.36
2022-09-24T14:41:33.419Z,70.76
2022-09-24T14:42:33.412Z,67.84
2022-09-24T14:43:33.394Z,68.95
2022-09-24T14:44:33.385Z,70.29
2022-09-24T14:45:33.393Z,71.10
2022-09-24T14:46:33.464Z,68.57
2022-09-24T14:47:33.347Z,69.79
2022-09-24T14:48:33.338Z,70.89
2022-09-24T14:49:33.336Z,70.39
2022-09-24T14:50:33.334Z,68.68
2022-09-24T14:51:33.304Z,69.38
2022-09-24T14:52:33.303Z,69.79
2022-09-24T14:53:33.287Z,69.48
2022-09-24T14:54:33.280Z,69.68
2022-09-24T14:55:33.281Z,68.98
2022-09-24T14:56:33.301Z,66.79
2022-09-24T14:57:33.236Z,68.04
2022-09-24T14:58:33.234Z,68.51
2022-09-24T14:59:33.211Z,69.24
2022-09-24T15:00:33.200Z,70.18
2022-09-24T15:01:33.356Z,71.30
2022-09-24T15:02:33.177Z,72.21
2022-09-24T15:03:33.168Z,72.01
2022-09-24T15:04:33.167Z,71.40
2022-09-24T15:05:33.239Z,73.32
2022-09-24T15:06:33.157Z,72.92
2022-09-24T15:07:33.126Z,72.31
2022-09-24T15:08:33.111Z,72.11
2022-09-24T15:09:33.108Z,71.91
2022-09-24T15:10:33.099Z,73.02
2022-09-24T15:11:33.092Z,72.61
2022-09-24T15:12:33.085Z,72.11
2022-09-24T15:13:33.054Z,72.01
2022-09-24T15:14:33.088Z,72.81
2022-09-24T15:15:33.095Z,73.12
2022-09-24T15:16:33.081Z,72.61
2022-09-24T15:17:33.004Z,72.11
2022-09-24T15:18:32.995Z,72.41
2022-09-24T15:19:33.004Z,74.74
2022-09-24T15:20:32.971Z,72.81
2022-09-24T15:21:32.958Z,73.25
2022-09-24T15:22:32.954Z,73.43
2022-09-24T15:23:32.938Z,73.63
2022-09-24T15:24:32.954Z,71.91
2022-09-24T15:25:32.912Z,72.04
2022-09-24T15:26:32.900Z,72.85
2022-09-24T15:27:32.889Z,73.36
2022-09-24T15:28:32.896Z,73.66
2022-09-24T15:29:32.868Z,74.27
2022-09-24T15:30:32.919Z,74.77
2022-09-24T15:31:32.887Z,71.94
2022-09-24T15:32:32.832Z,72.34
2022-09-24T15:33:32.822Z,72.24
2022-09-24T15:34:32.821Z,72.04
2022-09-24T15:35:32.817Z,71.33
2022-09-24T15:36:32.788Z,71.73
2022-09-24T15:37:32.779Z,72.28
2022-09-24T15:38:32.788Z,72.99
2022-09-24T15:39:32.754Z,73.29
2022-09-24T15:40:32.823Z,74.60
2022-09-24T15:41:32.746Z,73.29
2022-09-24T15:42:32.803Z,73.22
2022-09-24T15:43:32.708Z,75.35
2022-09-24T15:44:34.217Z,73.63
2022-09-24T15:45:32.707Z,74.13
2022-09-24T15:46:32.716Z,73.83
2022-09-24T15:47:32.688Z,73.32
2022-09-24T15:48:32.651Z,73.53
2022-09-24T15:49:32.669Z,73.69
2022-09-24T15:50:32.627Z,73.29
2022-09-24T15:51:32.625Z,74.16
2022-09-24T15:52:32.639Z,72.75
2022-09-24T15:53:32.629Z,73.69
2022-09-24T15:54:32.581Z,74.00
2022-09-24T15:55:32.573Z,73.29
2022-09-24T15:56:32.560Z,73.25
2022-09-24T15:57:32.568Z,73.36
2022-09-24T15:58:32.549Z,73.22
2022-09-24T15:59:32.555Z,72.24
2022-09-24T16:00:32.536Z,72.92
2022-09-24T16:01:32.555Z,72.04
2022-09-24T16:02:32.642Z,72.24
2022-09-24T16:03:32.479Z,72.24
2022-09-24T16:04:32.481Z,72.65
2022-09-24T16:05:32.458Z,73.59
2022-09-24T16:06:32.448Z,73.12
2022-09-24T16:07:32.460Z,73.02
2022-09-24T16:08:32.444Z,73.66
2022-09-24T16:09:32.427Z,74.30
2022-09-24T16:10:32.398Z,75.93
2022-09-24T16:11:32.389Z,75.82
2022-09-24T16:12:32.403Z,75.93
2022-09-24T16:13:32.417Z,75.52
2022-09-24T16:14:32.679Z,76.64
2022-09-24T16:15:32.419Z,77.14
2022-09-24T16:16:32.504Z,77.14
2022-09-24T16:17:32.340Z,77.45
2022-09-24T16:18:32.327Z,76.90
2022-09-24T16:19:32.299Z,76.50
2022-09-24T16:20:32.290Z,76.80
2022-09-24T16:21:32.296Z,77.61
2022-09-24T16:22:32.284Z,77.34
2022-09-24T16:23:32.273Z,76.60
2022-09-24T16:24:32.243Z,77.45
2022-09-24T16:25:32.231Z,77.65
2022-09-24T16:26:32.231Z,77.14
2022-09-24T16:27:32.231Z,77.25
2022-09-24T16:28:32.194Z,78.09
2022-09-24T16:29:32.185Z,79.00
2022-09-24T16:30:36.253Z,78.80
2022-09-24T16:31:33.279Z,79.11
2022-09-24T16:32:32.188Z,79.41
2022-09-24T16:33:32.141Z,78.30
2022-09-24T16:34:32.146Z,78.13
2022-09-24T16:35:32.117Z,78.64
2022-09-24T16:36:32.104Z,79.28
2022-09-24T16:37:32.126Z,80.60
2022-09-24T16:38:32.097Z,80.19
2022-09-24T16:39:32.083Z,80.40
2022-09-24T16:40:32.127Z,80.40
2022-09-24T16:41:32.050Z,80.71
2022-09-24T16:42:32.036Z,80.91
2022-09-24T16:43:32.047Z,81.11
2022-09-24T16:44:32.029Z,80.50
2022-09-24T16:45:32.005Z,81.11
2022-09-24T16:46:32.065Z,81.45
2022-09-24T16:47:32.003Z,81.72
2022-09-24T16:48:31.989Z,81.96
2022-09-24T16:49:31.962Z,81.76
2022-09-24T16:50:31.966Z,82.17
2022-09-24T16:51:31.936Z,82.47
2022-09-24T16:52:31.922Z,82.47
2022-09-24T16:53:31.935Z,82.78
2022-09-24T16:54:31.902Z,82.10
2022-09-24T16:55:31.901Z,82.71
2022-09-24T16:56:31.891Z,82.40
2022-09-24T16:57:31.865Z,82.92
2022-09-24T16:58:31.875Z,82.81
2022-09-24T16:59:31.844Z,83.42
2022-09-24T17:00:31.831Z,83.22
2022-09-24T17:01:31.854Z,83.42
2022-09-24T17:02:31.914Z,83.12
2022-09-24T17:03:31.798Z,83.22
2022-09-24T17:04:31.884Z,84.03
2022-09-24T17:05:31.804Z,84.03
2022-09-24T17:06:31.767Z,84.17
2022-09-24T17:07:31.803Z,84.38
2022-09-24T17:08:31.751Z,84.48
2022-09-24T17:09:31.750Z,84.38
2022-09-24T17:10:31.719Z,84.38
2022-09-24T17:11:31.707Z,84.38
2022-09-24T17:12:31.696Z,84.62
2022-09-24T17:13:31.708Z,84.72
2022-09-24T17:14:31.704Z,84.72
2022-09-24T17:15:31.715Z,84.42
2022-09-24T17:16:31.714Z,84.21
2022-09-24T17:17:31.653Z,84.62
2022-09-24T17:18:38.826Z,84.86
2022-09-24T17:19:31.625Z,85.06
2022-09-24T17:20:31.620Z,84.86
2022-09-24T17:21:31.603Z,84.76
2022-09-24T17:22:31.584Z,84.97
2022-09-24T17:23:38.771Z,85.58
2022-09-24T17:24:39.306Z,85.68
2022-09-24T17:25:31.686Z,85.58
2022-09-24T17:26:31.730Z,85.92
2022-09-24T17:27:31.630Z,86.63
2022-09-24T17:28:31.574Z,86.53
2022-09-24T17:29:31.958Z,86.22
2022-09-24T17:30:31.867Z,86.83
2022-09-24T17:31:31.606Z,87.45
2022-09-24T17:32:31.465Z,87.14
2022-09-24T17:33:45.886Z,87.14
2022-09-24T17:34:32.447Z,87.29
2022-09-24T17:35:31.463Z,87.75
2022-09-24T17:36:31.557Z,87.69
2022-09-24T17:37:31.437Z,88.10
2022-09-24T17:38:31.420Z,87.90
2022-09-24T17:39:38.549Z,87.75
2022-09-24T17:40:31.464Z,88.31
2022-09-24T17:41:31.364Z,88.51
2022-09-24T17:42:31.457Z,88.61
2022-09-24T17:43:31.382Z,88.10
2022-09-24T17:44:31.382Z,88.51
2022-09-24T17:45:31.400Z,88.40
2022-09-24T17:46:31.398Z,88.92
2022-09-24T17:47:31.296Z,88.51
2022-09-24T17:48:31.289Z,88.61
2022-09-24T17:49:31.302Z,88.71
2022-09-24T17:50:31.294Z,88.24
2022-09-24T17:51:31.261Z,88.51
2022-09-24T17:52:39.016Z,88.55
2022-09-24T17:53:31.384Z,88.65
2022-09-24T17:54:31.356Z,88.65
2022-09-24T17:55:31.527Z,88.96
2022-09-24T17:56:31.350Z,88.75
2022-09-24T17:57:31.302Z,88.85
2022-09-24T17:58:31.208Z,88.79
2022-09-24T17:59:31.207Z,88.75
2022-09-24T18:00:31.154Z,88.59
2022-09-24T18:01:31.236Z,88.34
2022-09-24T18:02:31.230Z,89.00
2022-09-24T18:03:31.132Z,89.00
2022-09-24T18:04:31.175Z,89.81
2022-09-24T18:05:31.087Z,89.51
2022-09-24T18:06:33.137Z,89.40
2022-09-24T18:07:31.079Z,89.71
2022-09-24T18:08:31.077Z,89.20
2022-09-24T18:09:31.084Z,89.40
2022-09-24T18:10:31.033Z,89.92
2022-09-24T18:11:31.057Z,90.47
2022-09-24T18:12:31.030Z,89.96
2022-09-24T18:13:31.023Z,89.86
2022-09-24T18:14:30.994Z,89.86
2022-09-24T18:15:31.053Z,89.86
2022-09-24T18:16:30.965Z,90.06
2022-09-24T18:17:30.970Z,89.86
2022-09-24T18:18:30.969Z,90.06
2022-09-24T18:19:30.962Z,90.06
2022-09-24T18:20:30.942Z,90.06
2022-09-24T18:21:30.915Z,90.00
2022-09-24T18:22:30.944Z,90.20
2022-09-24T18:23:30.927Z,90.31
2022-09-24T18:24:30.906Z,90.10
2022-09-24T18:25:30.893Z,90.10
2022-09-24T18:26:30.882Z,90.10
2022-09-24T18:27:30.842Z,90.10
2022-09-24T18:28:30.851Z,90.35
2022-09-24T18:29:30.844Z,90.35
2022-09-24T18:30:30.891Z,90.04
2022-09-24T18:31:30.908Z,90.14
2022-09-24T18:32:30.817Z,90.25
2022-09-24T18:33:30.797Z,90.45
2022-09-24T18:34:30.803Z,90.39
2022-09-24T18:35:30.762Z,90.70
2022-09-24T18:36:31.363Z,90.08
2022-09-24T18:37:30.794Z,90.19
2022-09-24T18:38:30.734Z,90.66
2022-09-24T18:39:30.733Z,89.98
2022-09-24T18:40:30.745Z,89.58
2022-09-24T18:41:30.736Z,89.98
2022-09-24T18:42:30.696Z,90.39
2022-09-24T18:43:30.703Z,90.08
2022-09-24T18:44:30.648Z,90.08
2022-09-24T18:45:30.646Z,90.19
2022-09-24T18:46:30.895Z,90.19
2022-09-24T18:47:30.722Z,90.70
2022-09-24T18:48:30.630Z,90.19
2022-09-24T18:49:30.599Z,90.39
2022-09-24T18:50:30.593Z,90.29
2022-09-24T18:51:30.581Z,90.19
2022-09-24T18:52:30.570Z,90.43
2022-09-24T18:53:30.791Z,90.33
2022-09-24T18:54:30.608Z,89.92
2022-09-24T18:55:30.558Z,90.74
2022-09-24T18:56:30.756Z,90.53
2022-09-24T18:57:30.537Z,90.33
2022-09-24T18:58:30.524Z,90.64
2022-09-24T18:59:30.493Z,90.74
2022-09-24T19:00:30.518Z,90.88
2022-09-24T19:01:30.557Z,91.39
2022-09-24T19:02:30.619Z,91.19
2022-09-24T19:03:30.460Z,91.19
2022-09-24T19:04:32.462Z,91.19
2022-09-24T19:05:30.566Z,90.88
2022-09-24T19:06:30.491Z,91.13
2022-09-24T19:07:30.548Z,91.74
2022-09-24T19:08:30.422Z,90.92
2022-09-24T19:09:30.459Z,91.33
2022-09-24T19:10:30.369Z,91.33
2022-09-24T19:11:30.356Z,90.72
2022-09-24T19:12:30.352Z,91.74
2022-09-24T19:13:30.357Z,91.54
2022-09-24T19:14:30.312Z,91.85
2022-09-24T19:15:30.343Z,91.38
2022-09-24T19:16:30.309Z,91.69
2022-09-24T19:17:30.278Z,91.58
2022-09-24T19:18:30.318Z,91.74
2022-09-24T19:19:30.291Z,91.78
2022-09-24T19:20:30.250Z,91.58
2022-09-24T19:21:30.267Z,91.69
2022-09-24T19:22:30.243Z,91.38
2022-09-24T19:23:30.252Z,91.38
2022-09-24T19:24:30.209Z,91.83
2022-09-24T19:25:30.219Z,91.52
2022-09-24T19:26:30.172Z,91.73
2022-09-24T19:27:30.171Z,92.03
2022-09-24T19:28:30.194Z,92.65
2022-09-24T19:29:30.393Z,92.55
2022-09-24T19:30:30.149Z,92.34
2022-09-24T19:31:30.311Z,92.38
2022-09-24T19:32:30.117Z,92.44
2022-09-24T19:33:30.136Z,92.49
2022-09-24T19:34:30.078Z,92.49
2022-09-24T19:35:30.122Z,92.28
2022-09-24T19:36:30.060Z,92.34
2022-09-24T19:37:30.098Z,92.38
2022-09-24T19:38:30.048Z,92.49
2022-09-24T19:39:30.050Z,92.49
2022-09-24T19:40:30.068Z,93.20
2022-09-24T19:41:30.001Z,93.62
2022-09-24T19:42:29.994Z,93.10
2022-09-24T19:43:30.019Z,93.20
2022-09-24T19:44:29.973Z,93.51
2022-09-24T19:45:29.955Z,93.62
2022-09-24T19:46:29.973Z,93.62
2022-09-24T19:47:29.971Z,93.62
2022-09-24T19:48:29.927Z,93.71
2022-09-24T19:49:29.924Z,93.62
2022-09-24T19:50:29.954Z,93.51
2022-09-24T19:51:29.916Z,93.82
2022-09-24T19:52:29.897Z,93.41
2022-09-24T19:53:29.865Z,93.41
2022-09-24T19:54:29.894Z,93.71
2022-09-24T19:55:29.839Z,93.51
2022-09-24T19:56:29.840Z,94.12
2022-09-24T19:57:29.853Z,93.82
2022-09-24T19:58:29.806Z,94.12
2022-09-24T19:59:29.819Z,93.71
2022-09-24T20:00:29.791Z,94.23
2022-09-24T20:01:29.882Z,94.43
2022-09-24T20:02:29.937Z,94.23
2022-09-24T20:03:29.776Z,94.23
2022-09-24T20:04:29.737Z,94.43
2022-09-24T20:05:29.771Z,93.71
2022-09-24T20:06:29.746Z,93.82
2022-09-24T20:07:29.700Z,94.12
2022-09-24T20:08:29.690Z,93.82
2022-09-24T20:09:29.705Z,94.43
2022-09-24T20:10:29.664Z,93.92
2022-09-24T20:11:29.696Z,93.82
2022-09-24T20:12:29.667Z,94.02
2022-09-24T20:13:29.674Z,93.51
2022-09-24T20:14:33.523Z,93.51
2022-09-24T20:15:29.716Z,93.62
2022-09-24T20:16:29.606Z,93.62
2022-09-24T20:17:29.639Z,93.71
2022-09-24T20:18:29.590Z,93.71
2022-09-24T20:19:29.570Z,93.71
2022-09-24T20:20:29.602Z,93.71
2022-09-24T20:21:29.548Z,94.02
2022-09-24T20:22:29.531Z,93.57
2022-09-24T20:23:29.534Z,94.02
2022-09-24T20:24:29.516Z,94.08
2022-09-24T20:25:29.543Z,93.92
2022-09-24T20:26:29.549Z,94.02
2022-09-24T20:27:29.472Z,94.23
2022-09-24T20:28:29.496Z,94.23
2022-09-24T20:29:29.468Z,93.62
2022-09-24T20:30:29.440Z,93.92
2022-09-24T20:31:29.753Z,93.62
2022-09-24T20:32:29.520Z,94.02
2022-09-24T20:33:29.414Z,93.71
2022-09-24T20:34:29.446Z,93.92
2022-09-24T20:35:29.398Z,93.71
2022-09-24T20:36:29.451Z,93.71
2022-09-24T20:37:29.375Z,93.51
2022-09-24T20:38:29.358Z,93.71
2022-09-24T20:39:29.349Z,93.62
2022-09-24T20:40:29.538Z,93.51
2022-09-24T20:41:29.309Z,93.92
2022-09-24T20:42:29.296Z,93.62
2022-09-24T20:43:29.292Z,93.71
2022-09-24T20:44:29.350Z,93.41
2022-09-24T20:45:29.283Z,93.92
2022-09-24T20:46:29.309Z,93.82
2022-09-24T20:47:29.338Z,93.76
2022-09-24T20:48:29.260Z,93.86
2022-09-24T20:49:29.237Z,93.86
2022-09-24T20:50:29.258Z,93.96
2022-09-24T20:51:29.254Z,93.55
2022-09-24T20:52:29.209Z,93.66
2022-09-24T20:53:29.186Z,93.76
2022-09-24T20:54:29.197Z,93.76
2022-09-24T20:55:29.558Z,93.66
2022-09-24T20:56:29.146Z,93.66
2022-09-24T20:57:29.158Z,93.55
2022-09-24T20:58:29.109Z,93.66
2022-09-24T20:59:29.101Z,93.96
2022-09-24T21:00:29.116Z,93.96
2022-09-24T21:01:29.182Z,93.49
2022-09-24T21:02:29.247Z,94.01
2022-09-24T21:03:42.703Z,93.80
2022-09-24T21:04:30.296Z,93.60
2022-09-24T21:05:29.030Z,93.80
2022-09-24T21:06:29.039Z,93.80
2022-09-24T21:07:29.018Z,93.49
2022-09-24T21:08:29.061Z,93.70
2022-09-24T21:09:29.014Z,93.70
2022-09-24T21:10:28.988Z,93.44
2022-09-24T21:11:28.973Z,93.54
2022-09-24T21:12:28.952Z,93.74
2022-09-24T21:13:28.962Z,93.74
2022-09-24T21:14:28.991Z,93.74
2022-09-24T21:15:29.079Z,93.64
2022-09-24T21:16:28.976Z,93.74
2022-09-24T21:17:28.904Z,93.54
2022-09-24T21:18:35.811Z,93.68
2022-09-24T21:19:29.919Z,93.99
2022-09-24T21:20:28.970Z,93.99
2022-09-24T21:21:28.892Z,93.79
2022-09-24T21:22:28.839Z,93.89
2022-09-24T21:23:28.824Z,93.68
2022-09-24T21:24:31.458Z,94.10
2022-09-24T21:25:52.741Z,94.04
2022-09-24T21:26:29.870Z,94.61
2022-09-24T21:27:28.784Z,94.61
2022-09-24T21:28:28.805Z,94.30
2022-09-24T21:29:28.782Z,93.99
2022-09-24T21:30:29.051Z,94.10
2022-09-24T21:31:28.765Z,94.30
2022-09-24T21:32:28.724Z,94.34
2022-09-24T21:33:28.718Z,94.04
2022-09-24T21:34:28.704Z,93.93
2022-09-24T21:35:28.738Z,94.96
2022-09-24T21:36:28.822Z,94.85
2022-09-24T21:37:28.670Z,94.45
2022-09-24T21:38:28.677Z,94.55
2022-09-24T21:39:28.645Z,94.55
2022-09-24T21:40:28.764Z,94.45
2022-09-24T21:41:28.634Z,94.65
2022-09-24T21:42:28.631Z,94.55
2022-09-24T21:43:33.887Z,94.65
2022-09-24T21:44:29.589Z,94.55
2022-09-24T21:45:28.669Z,94.76
2022-09-24T21:46:28.656Z,94.85
2022-09-24T21:47:28.571Z,95.31
2022-09-24T21:48:28.560Z,94.76
2022-09-24T21:49:28.583Z,94.96
2022-09-24T21:50:28.518Z,95.78
2022-09-24T21:51:28.540Z,95.52
2022-09-24T21:52:28.505Z,95.98
2022-09-24T21:53:28.508Z,95.83
2022-09-24T21:54:28.499Z,95.31
2022-09-24T21:55:28.477Z,95.31
2022-09-24T21:56:28.508Z,95.10
2022-09-24T21:57:28.449Z,94.70
2022-09-24T21:58:28.483Z,95.01
2022-09-24T21:59:28.465Z,95.10
2022-09-24T22:00:28.451Z,95.83
2022-09-24T22:01:28.530Z,95.72
2022-09-24T22:02:28.451Z,95.42
2022-09-24T22:03:28.520Z,95.62
2022-09-24T22:04:28.393Z,95.62
2022-09-24T22:05:28.361Z,95.62
2022-09-24T22:06:28.360Z,95.42
2022-09-24T22:07:28.333Z,95.52
2022-09-24T22:08:28.336Z,95.31
2022-09-24T22:09:28.325Z,95.31
2022-09-24T22:10:28.326Z,95.62
2022-09-24T22:11:28.335Z,95.42
2022-09-24T22:12:28.259Z,95.72
2022-09-24T22:13:28.258Z,95.31
2022-09-24T22:14:28.259Z,95.62
2022-09-24T22:15:28.303Z,95.52
2022-09-24T22:16:28.315Z,96.03
2022-09-24T22:17:28.214Z,96.14
2022-09-24T22:18:28.224Z,96.03
2022-09-24T22:19:28.180Z,95.62
2022-09-24T22:20:28.190Z,96.14
2022-09-24T22:21:28.175Z,96.03
2022-09-24T22:22:28.189Z,96.03
2022-09-24T22:23:28.154Z,95.93
2022-09-24T22:24:28.144Z,95.97
2022-09-24T22:25:28.120Z,95.93
2022-09-24T22:26:28.121Z,96.39
2022-09-24T22:27:28.122Z,96.23
2022-09-24T22:28:28.079Z,95.83
2022-09-24T22:29:28.075Z,96.28
2022-09-24T22:30:28.157Z,96.23
2022-09-24T22:31:28.071Z,96.14
2022-09-24T22:32:28.855Z,96.65
2022-09-24T22:33:28.028Z,96.75
2022-09-24T22:34:28.056Z,96.28
2022-09-24T22:35:28.057Z,96.34
2022-09-24T22:36:28.040Z,96.23
2022-09-24T22:37:27.983Z,96.65
2022-09-24T22:38:27.969Z,96.23
2022-09-24T22:39:27.957Z,96.14
2022-09-24T22:40:28.036Z,96.34
2022-09-24T22:41:27.951Z,96.55
2022-09-24T22:42:27.946Z,96.44
2022-09-24T22:43:27.915Z,96.75
2022-09-24T22:44:27.912Z,96.85
2022-09-24T22:45:27.898Z,96.85
2022-09-24T22:46:28.028Z,96.75
2022-09-24T22:47:27.863Z,96.95
2022-09-24T22:48:27.861Z,96.55
2022-09-24T22:49:27.899Z,96.65
2022-09-24T22:50:27.837Z,97.37
2022-09-24T22:51:27.818Z,97.37
2022-09-24T22:52:27.811Z,97.47
2022-09-24T22:53:27.790Z,97.67
2022-09-24T22:54:27.805Z,97.67
2022-09-24T22:55:27.800Z,97.57
2022-09-24T22:56:27.866Z,97.57
2022-09-24T22:57:27.755Z,97.67
2022-09-24T22:58:27.745Z,97.67
2022-09-24T22:59:27.753Z,97.27
2022-09-24T23:00:27.718Z,97.37
2022-09-24T23:01:27.825Z,97.37
2022-09-24T23:02:27.699Z,97.57
2022-09-24T23:03:27.734Z,97.88
2022-09-24T23:04:27.666Z,97.16
2022-09-24T23:05:27.731Z,97.57
2022-09-24T23:06:27.658Z,97.78
2022-09-24T23:07:27.657Z,97.37
2022-09-24T23:08:27.622Z,97.37
2022-09-24T23:09:27.632Z,97.27
2022-09-24T23:10:27.632Z,97.27
2022-09-24T23:11:27.598Z,97.27
2022-09-24T23:12:27.611Z,97.67
2022-09-24T23:13:27.719Z,97.78
2022-09-24T23:14:27.565Z,97.16
2022-09-24T23:15:27.559Z,97.27
2022-09-24T23:16:27.634Z,97.88
2022-09-24T23:17:27.563Z,97.78
2022-09-24T23:18:27.549Z,97.78
2022-09-24T23:19:27.519Z,97.88
2022-09-24T23:20:27.498Z,97.88
2022-09-24T23:21:27.513Z,97.67
2022-09-24T23:22:27.485Z,97.67
2022-09-24T23:23:27.471Z,97.88
2022-09-24T23:24:27.483Z,97.67
2022-09-24T23:25:27.449Z,97.78
2022-09-24T23:26:27.457Z,97.67
2022-09-24T23:27:27.434Z,97.73
2022-09-24T23:28:27.403Z,97.57
2022-09-24T23:29:27.442Z,97.53
2022-09-24T23:30:27.441Z,97.63
2022-09-24T23:31:27.379Z,97.53
2022-09-24T23:32:27.471Z,97.73
2022-09-24T23:33:27.349Z,97.78
2022-09-24T23:34:27.378Z,97.47
2022-09-24T23:35:27.344Z,97.22
2022-09-24T23:36:27.303Z,97.67
2022-09-24T23:37:27.303Z,97.83
2022-09-24T23:38:27.321Z,97.57
2022-09-24T23:39:27.352Z,97.73
2022-09-24T23:40:27.337Z,97.53
2022-09-24T23:41:27.285Z,97.73
2022-09-24T23:42:27.250Z,97.63
2022-09-24T23:43:27.246Z,97.42
2022-09-24T23:44:27.287Z,97.42
2022-09-24T23:45:27.212Z,97.63
2022-09-24T23:46:27.377Z,97.63
2022-09-24T23:47:27.208Z,97.53
2022-09-24T23:48:27.229Z,97.63
2022-09-24T23:49:27.158Z,97.53
2022-09-24T23:50:27.197Z,97.73
2022-09-24T23:51:27.152Z,97.32
2022-09-24T23:52:27.214Z,97.94
2022-09-24T23:53:34.204Z,97.63
2022-09-24T23:54:27.092Z,97.42
2022-09-24T23:55:27.076Z,97.63
2022-09-24T23:56:27.091Z,97.83
2022-09-24T23:57:27.077Z,97.63
2022-09-24T23:58:27.046Z,97.42
2022-09-24T23:59:27.030Z,97.63
